Time;durP1;ratioP1;P1;durP2;ratioP2;P2;SDS_P1;SDS_P2;PMS_P1;PMS_P2;Temp;Humidity;BMP_temperature;BMP_pressure;BME280_temperature;BME280_humidity;BME280_pressure;Samples;Min_cycle;Max_cycle;Signal;HPM_P1;HPM_P2
2022/09/17 00:00:30;;;;;;;;;;;16.60;99.90;;;;;;5042713;28;20029;-62
2022/09/17 00:02:58;;;;;;;;;;;16.70;99.90;;;;;;5041921;28;21298;-62
2022/09/17 00:05:26;;;;;;;;;;;16.50;99.90;;;;;;5039106;28;20019;-62
2022/09/17 00:07:53;;;;;;;;;;;16.60;99.90;;;;;;5045602;28;20092;-62
2022/09/17 00:10:22;;;;;;;;;;;16.50;99.90;;;;;;5039453;28;19983;-62
2022/09/17 00:12:51;;;;;;;;;;;16.50;99.90;;;;;;5034339;28;20278;-63
2022/09/17 00:15:19;;;;;;;;;;;16.60;99.90;;;;;;5045334;28;20117;-62
2022/09/17 00:17:46;;;;;;;;;;;16.40;99.90;;;;;;5035867;28;20675;-63
2022/09/17 00:20:14;;;;;;;;;;;16.50;99.90;;;;;;5040456;28;19965;-63
2022/09/17 00:22:42;;;;;;;;;;;16.20;99.90;;;;;;5033940;28;20020;-62
2022/09/17 00:25:09;;;;;;;;;;;16.10;99.90;;;;;;5043454;28;19993;-63
2022/09/17 00:27:37;;;;;;;;;;;15.90;99.90;;;;;;5048837;28;20016;-62
2022/09/17 00:30:07;;;;;;;;;;;16.20;99.90;;;;;;5038028;28;20042;-64
2022/09/17 00:32:35;;;;;;;;;;;16.30;99.90;;;;;;5047752;28;20022;-62
2022/09/17 00:35:02;;;;;;;;;;;16.00;99.90;;;;;;5036555;28;20583;-62
2022/09/17 00:37:30;;;;;;;;;;;16.00;99.90;;;;;;5042872;28;20625;-62
2022/09/17 00:39:58;;;;;;;;;;;15.90;99.90;;;;;;5035580;28;20644;-62
2022/09/17 00:42:26;;;;;;;;;;;15.80;99.90;;;;;;5040788;28;20573;-62
2022/09/17 00:44:54;;;;;;;;;;;16.00;99.90;;;;;;5038267;28;20203;-62
2022/09/17 00:47:26;;;;;;;;;;;16.10;99.90;;;;;;5041809;28;19996;-62
2022/09/17 00:49:56;;;;;;;;;;;16.10;99.90;;;;;;5038795;28;20070;-62
2022/09/17 00:52:26;;;;;;;;;;;16.00;99.90;;;;;;5039868;28;20007;-62
2022/09/17 00:54:57;;;;;;;;;;;16.10;99.90;;;;;;5034716;28;20014;-61
2022/09/17 00:57:25;;;;;;;;;;;16.30;99.90;;;;;;5037213;28;20628;-62
2022/09/17 00:59:53;;;;;;;;;;;16.40;99.90;;;;;;5036689;28;20081;-61
2022/09/17 01:02:21;;;;;;;;;;;16.10;99.90;;;;;;5035247;28;19984;-62
2022/09/17 01:04:51;;;;;;;;;;;16.20;99.90;;;;;;5037670;28;19986;-62
2022/09/17 01:07:23;;;;;;;;;;;16.20;99.90;;;;;;5037847;28;19963;-62
2022/09/17 01:09:53;;;;;;;;;;;16.00;99.90;;;;;;5050469;28;20144;-62
2022/09/17 01:12:30;;;;;;;;;;;16.20;99.90;;;;;;5038426;28;19984;-62
2022/09/17 01:15:07;;;;;;;;;;;16.10;99.90;;;;;;5040599;28;20852;-62
2022/09/17 01:17:42;;;;;;;;;;;16.30;99.90;;;;;;5043235;28;20350;-62
2022/09/17 01:20:28;;;;;;;;;;;16.20;99.90;;;;;;5035920;28;26121;-61
2022/09/17 01:23:15;;;;;;;;;;;16.10;99.90;;;;;;5037726;28;21202;-62
2022/09/17 01:25:52;;;;;;;;;;;15.70;99.90;;;;;;5030769;28;20678;-62
2022/09/17 01:28:24;;;;;;;;;;;15.90;99.90;;;;;;5034429;28;20676;-62
2022/09/17 01:31:04;;;;;;;;;;;16.00;99.90;;;;;;5037778;28;19976;-62
2022/09/17 01:33:37;;;;;;;;;;;16.00;99.90;;;;;;5042547;28;19970;-62
2022/09/17 01:36:09;;;;;;;;;;;15.90;99.90;;;;;;5042063;28;20843;-62
2022/09/17 01:38:40;;;;;;;;;;;15.90;99.90;;;;;;5039566;28;20049;-62
2022/09/17 01:41:11;;;;;;;;;;;15.90;99.90;;;;;;5041718;28;20496;-62
2022/09/17 01:43:43;;;;;;;;;;;15.80;99.90;;;;;;5033802;28;21225;-62
2022/09/17 01:46:14;;;;;;;;;;;15.80;99.90;;;;;;5043384;28;20038;-62
2022/09/17 01:48:46;;;;;;;;;;;15.70;99.90;;;;;;5037441;28;20910;-62
2022/09/17 01:51:16;;;;;;;;;;;15.50;99.90;;;;;;5044860;28;19995;-62
2022/09/17 01:53:45;;;;;;;;;;;15.70;99.90;;;;;;5041691;28;20006;-61
2022/09/17 01:56:17;;;;;;;;;;;15.50;99.90;;;;;;5042416;28;20036;-62
2022/09/17 01:58:46;;;;;;;;;;;15.40;99.90;;;;;;5034147;28;20009;-62
2022/09/17 02:01:17;;;;;;;;;;;15.40;99.90;;;;;;5037434;28;20131;-62
2022/09/17 02:03:48;;;;;;;;;;;15.60;99.90;;;;;;5042537;28;20064;-62
2022/09/17 02:06:17;;;;;;;;;;;15.40;99.90;;;;;;5039259;28;20090;-62
2022/09/17 02:08:46;;;;;;;;;;;15.30;99.90;;;;;;5043927;28;20029;-62
2022/09/17 02:11:16;;;;;;;;;;;15.50;99.90;;;;;;5036680;28;19971;-61
2022/09/17 02:13:44;;;;;;;;;;;15.60;99.90;;;;;;5044963;28;20199;-62
2022/09/17 02:16:15;;;;;;;;;;;15.70;99.90;;;;;;5036831;28;21180;-62
2022/09/17 02:18:49;;;;;;;;;;;15.60;99.90;;;;;;5039693;28;20737;-62
2022/09/17 02:21:21;;;;;;;;;;;15.60;99.90;;;;;;5043689;28;20497;-62
2022/09/17 02:23:56;;;;;;;;;;;15.50;99.90;;;;;;5035902;28;20020;-61
2022/09/17 02:26:25;;;;;;;;;;;15.70;99.90;;;;;;5039270;28;20007;-61
2022/09/17 02:28:55;;;;;;;;;;;15.60;99.90;;;;;;5035326;28;20521;-61
2022/09/17 02:31:22;;;;;;;;;;;15.70;99.90;;;;;;5042267;28;20670;-62
2022/09/17 02:33:53;;;;;;;;;;;15.60;99.90;;;;;;5040949;28;20718;-62
2022/09/17 02:36:22;;;;;;;;;;;15.70;99.90;;;;;;5046253;28;20545;-62
2022/09/17 02:38:55;;;;;;;;;;;15.40;99.90;;;;;;5038567;28;25157;-62
2022/09/17 02:41:25;;;;;;;;;;;15.30;99.90;;;;;;5040040;28;21234;-62
2022/09/17 02:43:58;;;;;;;;;;;15.50;99.90;;;;;;5033041;28;20906;-61
2022/09/17 02:46:40;;;;;;;;;;;15.40;99.90;;;;;;5039282;28;20435;-61
2022/09/17 02:49:14;;;;;;;;;;;15.30;99.90;;;;;;5036977;28;20697;-61
2022/09/17 02:51:47;;;;;;;;;;;15.30;99.90;;;;;;5032717;28;20527;-61
2022/09/17 02:54:18;;;;;;;;;;;15.50;99.90;;;;;;5040651;28;19984;-61
2022/09/17 02:56:50;;;;;;;;;;;15.60;99.90;;;;;;5034546;28;20726;-61
2022/09/17 02:59:22;;;;;;;;;;;15.70;99.90;;;;;;5037454;28;20415;-62
2022/09/17 03:01:52;;;;;;;;;;;15.60;99.90;;;;;;5036796;28;20834;-62
2022/09/17 03:04:22;;;;;;;;;;;15.10;99.90;;;;;;5032577;28;19972;-62
2022/09/17 03:06:52;;;;;;;;;;;15.30;99.90;;;;;;5042563;28;20297;-62
2022/09/17 03:09:19;;;;;;;;;;;15.30;99.90;;;;;;5047119;28;19963;-62
2022/09/17 03:11:47;;;;;;;;;;;15.40;99.90;;;;;;5040075;28;19984;-62
2022/09/17 03:14:15;;;;;;;;;;;15.20;99.90;;;;;;5042810;28;20468;-61
2022/09/17 03:16:43;;;;;;;;;;;15.40;99.90;;;;;;5039501;28;20230;-62
2022/09/17 03:19:10;;;;;;;;;;;15.20;99.90;;;;;;5035874;28;19974;-62
2022/09/17 03:21:39;;;;;;;;;;;15.20;99.90;;;;;;5043353;28;20453;-62
2022/09/17 03:24:09;;;;;;;;;;;15.00;99.90;;;;;;5046876;28;19992;-62
2022/09/17 03:26:37;;;;;;;;;;;15.40;99.90;;;;;;5045032;28;20026;-62
2022/09/17 03:29:05;;;;;;;;;;;15.40;99.90;;;;;;5048426;28;20410;-62
2022/09/17 03:31:33;;;;;;;;;;;15.40;99.90;;;;;;5048870;28;20072;-62
2022/09/17 03:34:00;;;;;;;;;;;15.30;99.90;;;;;;5039542;28;19966;-61
2022/09/17 03:36:28;;;;;;;;;;;15.40;99.90;;;;;;5039304;28;20020;-62
2022/09/17 03:38:57;;;;;;;;;;;15.40;99.90;;;;;;5039385;28;19975;-62
2022/09/17 03:41:25;;;;;;;;;;;15.60;99.90;;;;;;5040399;28;20013;-62
2022/09/17 03:43:53;;;;;;;;;;;15.50;99.90;;;;;;5045405;28;20556;-62
2022/09/17 03:46:21;;;;;;;;;;;15.50;99.90;;;;;;5049570;28;20026;-62
2022/09/17 03:48:48;;;;;;;;;;;15.50;99.90;;;;;;5045955;28;20331;-62
2022/09/17 03:51:16;;;;;;;;;;;15.70;99.90;;;;;;5036407;28;19972;-61
2022/09/17 03:53:44;;;;;;;;;;;15.70;99.90;;;;;;5038527;28;20724;-61
2022/09/17 03:56:13;;;;;;;;;;;15.60;99.90;;;;;;5039495;28;19961;-61
2022/09/17 03:58:41;;;;;;;;;;;15.50;99.90;;;;;;5044580;28;19965;-61
2022/09/17 04:01:08;;;;;;;;;;;15.20;99.90;;;;;;5038160;28;19970;-62
2022/09/17 04:03:36;;;;;;;;;;;15.10;99.90;;;;;;5037887;28;20305;-61
2022/09/17 04:06:04;;;;;;;;;;;15.20;99.90;;;;;;5048799;28;19959;-62
2022/09/17 04:08:32;;;;;;;;;;;15.30;99.90;;;;;;5038289;28;20618;-61
2022/09/17 04:11:00;;;;;;;;;;;15.30;99.90;;;;;;5039576;28;19981;-62
2022/09/17 04:13:29;;;;;;;;;;;15.10;99.90;;;;;;5042513;28;20658;-62
2022/09/17 04:15:57;;;;;;;;;;;15.20;99.90;;;;;;5050013;28;19970;-62
2022/09/17 04:18:24;;;;;;;;;;;15.60;99.90;;;;;;5043479;28;19999;-62
2022/09/17 04:20:52;;;;;;;;;;;15.60;99.90;;;;;;5040633;28;19970;-62
2022/09/17 04:23:21;;;;;;;;;;;15.30;99.90;;;;;;5043595;28;20332;-62
2022/09/17 04:25:49;;;;;;;;;;;15.00;99.90;;;;;;5037782;28;19974;-62
2022/09/17 04:28:16;;;;;;;;;;;15.50;99.90;;;;;;5040605;28;19959;-65
2022/09/17 04:30:47;;;;;;;;;;;15.60;99.90;;;;;;5041185;28;19972;-65
2022/09/17 04:33:15;;;;;;;;;;;15.10;99.90;;;;;;5041456;28;20060;-64
2022/09/17 04:35:42;;;;;;;;;;;15.10;99.90;;;;;;5039342;28;19975;-65
2022/09/17 04:38:12;;;;;;;;;;;14.70;99.90;;;;;;5040776;28;21399;-64
2022/09/17 04:40:41;;;;;;;;;;;14.70;99.90;;;;;;5044524;28;19983;-65
2022/09/17 04:43:09;;;;;;;;;;;14.70;99.90;;;;;;5040705;28;20026;-66
2022/09/17 04:45:37;;;;;;;;;;;14.60;99.90;;;;;;5043305;28;20822;-66
2022/09/17 04:48:06;;;;;;;;;;;14.60;99.90;;;;;;5041320;28;19979;-64
2022/09/17 04:50:33;;;;;;;;;;;14.70;99.90;;;;;;5041978;28;20907;-66
2022/09/17 04:53:02;;;;;;;;;;;15.10;99.90;;;;;;5041812;28;19981;-64
2022/09/17 04:55:30;;;;;;;;;;;15.20;99.90;;;;;;5042889;28;20071;-64
2022/09/17 04:57:58;;;;;;;;;;;15.00;99.90;;;;;;5038163;28;19997;-64
2022/09/17 05:00:25;;;;;;;;;;;15.20;99.90;;;;;;5043039;28;20440;-64
2022/09/17 05:02:54;;;;;;;;;;;15.40;99.90;;;;;;5041656;28;20325;-65
2022/09/17 05:05:23;;;;;;;;;;;15.60;99.90;;;;;;5042136;28;20390;-63
2022/09/17 05:07:51;;;;;;;;;;;15.30;99.90;;;;;;5037639;28;19968;-63
2022/09/17 05:10:20;;;;;;;;;;;15.00;99.90;;;;;;5039377;28;19956;-63
2022/09/17 05:12:48;;;;;;;;;;;15.20;99.90;;;;;;5042042;28;19963;-62
2022/09/17 05:15:16;;;;;;;;;;;15.20;99.90;;;;;;5042566;28;20310;-64
2022/09/17 05:17:44;;;;;;;;;;;15.10;99.90;;;;;;5039652;28;19974;-63
2022/09/17 05:20:11;;;;;;;;;;;15.10;99.90;;;;;;5039946;28;20057;-62
2022/09/17 05:22:44;;;;;;;;;;;15.20;99.90;;;;;;5041173;28;19980;-62
2022/09/17 05:25:12;;;;;;;;;;;15.20;99.90;;;;;;5042314;28;20522;-62
2022/09/17 05:27:40;;;;;;;;;;;15.40;99.90;;;;;;5039905;28;20879;-62
2022/09/17 05:30:08;;;;;;;;;;;15.50;99.90;;;;;;5040200;28;19967;-62
2022/09/17 05:32:36;;;;;;;;;;;15.60;99.90;;;;;;5041520;28;19984;-62
2022/09/17 05:35:04;;;;;;;;;;;15.70;99.90;;;;;;5041487;28;19977;-62
2022/09/17 05:37:32;;;;;;;;;;;15.80;99.90;;;;;;5040549;28;19967;-62
2022/09/17 05:40:02;;;;;;;;;;;16.00;99.90;;;;;;5040341;28;19973;-62
2022/09/17 05:42:29;;;;;;;;;;;15.80;99.90;;;;;;5041225;28;19979;-63
2022/09/17 05:44:57;;;;;;;;;;;15.50;99.90;;;;;;5040806;28;19978;-63
2022/09/17 05:47:25;;;;;;;;;;;14.90;99.90;;;;;;5040004;28;19977;-63
2022/09/17 05:49:52;;;;;;;;;;;14.40;99.90;;;;;;5040767;28;19965;-63
2022/09/17 05:52:20;;;;;;;;;;;13.90;99.90;;;;;;5042185;28;20572;-65
2022/09/17 05:54:48;;;;;;;;;;;13.40;99.90;;;;;;5041153;28;19962;-68
2022/09/17 05:57:18;;;;;;;;;;;12.90;99.90;;;;;;5037747;28;19972;-65
2022/09/17 05:59:46;;;;;;;;;;;12.70;99.90;;;;;;5040224;28;19961;-65
2022/09/17 06:02:14;;;;;;;;;;;12.40;99.90;;;;;;5039659;28;20001;-65
2022/09/17 06:04:42;;;;;;;;;;;12.30;99.90;;;;;;5043049;28;20010;-65
2022/09/17 06:07:09;;;;;;;;;;;12.20;99.90;;;;;;5038367;28;19973;-65
2022/09/17 06:09:39;;;;;;;;;;;12.00;99.90;;;;;;5040634;28;19978;-66
2022/09/17 06:12:07;;;;;;;;;;;11.90;99.90;;;;;;5040356;28;20381;-66
2022/09/17 06:14:36;;;;;;;;;;;11.90;99.90;;;;;;5041113;28;20014;-65
2022/09/17 06:17:04;;;;;;;;;;;11.90;99.90;;;;;;5040341;28;19988;-66
2022/09/17 06:19:31;;;;;;;;;;;11.90;99.90;;;;;;5038914;28;20024;-65
2022/09/17 06:22:00;;;;;;;;;;;12.00;99.90;;;;;;5041552;28;19978;-65
2022/09/17 06:24:27;;;;;;;;;;;12.00;99.90;;;;;;5039127;28;19979;-65
2022/09/17 06:26:55;;;;;;;;;;;12.00;99.90;;;;;;5038376;28;19973;-65
2022/09/17 06:29:23;;;;;;;;;;;12.10;99.90;;;;;;5041210;28;20341;-65
2022/09/17 06:31:52;;;;;;;;;;;12.00;99.90;;;;;;5038270;28;19988;-65
2022/09/17 06:34:20;;;;;;;;;;;12.00;99.90;;;;;;5038090;28;19966;-65
2022/09/17 06:36:48;;;;;;;;;;;12.00;99.90;;;;;;5038880;28;19971;-65
2022/09/17 06:39:16;;;;;;;;;;;12.10;99.90;;;;;;5033111;28;21719;-71
2022/09/17 06:41:44;;;;;;;;;;;12.10;99.90;;;;;;5037327;28;21703;-66
2022/09/17 06:44:12;;;;;;;;;;;12.10;99.90;;;;;;5041265;28;19969;-66
2022/09/17 06:46:41;;;;;;;;;;;12.10;99.90;;;;;;5040567;28;19976;-66
2022/09/17 06:49:10;;;;;;;;;;;12.10;99.90;;;;;;5045391;28;19983;-65
2022/09/17 06:51:38;;;;;;;;;;;12.10;99.90;;;;;;5045130;28;19981;-66
2022/09/17 06:54:06;;;;;;;;;;;12.10;99.90;;;;;;5043768;28;20365;-67
2022/09/17 06:56:34;;;;;;;;;;;12.20;99.90;;;;;;5043550;28;20044;-66
2022/09/17 06:59:02;;;;;;;;;;;12.40;99.90;;;;;;5042072;28;20079;-65
2022/09/17 07:01:29;;;;;;;;;;;12.50;99.90;;;;;;5042558;28;19972;-65
2022/09/17 07:03:57;;;;;;;;;;;12.60;99.90;;;;;;5044147;28;20441;-65
2022/09/17 07:06:26;;;;;;;;;;;12.70;99.90;;;;;;5040974;28;19994;-66
2022/09/17 07:08:54;;;;;;;;;;;12.70;99.90;;;;;;5044331;28;19971;-65
2022/09/17 07:11:22;;;;;;;;;;;12.60;99.90;;;;;;5041633;28;19959;-66
2022/09/17 07:13:50;;;;;;;;;;;12.60;99.90;;;;;;5044545;28;20010;-65
2022/09/17 07:16:18;;;;;;;;;;;12.50;99.90;;;;;;5037575;28;20006;-65
2022/09/17 07:18:46;;;;;;;;;;;12.50;99.90;;;;;;5045118;28;20075;-66
2022/09/17 07:21:13;;;;;;;;;;;12.50;99.90;;;;;;5042227;28;20066;-66
2022/09/17 07:23:43;;;;;;;;;;;12.50;99.90;;;;;;5041364;28;19970;-65
2022/09/17 07:26:12;;;;;;;;;;;12.40;99.90;;;;;;5043210;28;20344;-67
2022/09/17 07:28:40;;;;;;;;;;;12.40;99.90;;;;;;5041119;28;20473;-66
2022/09/17 07:31:08;;;;;;;;;;;12.40;99.90;;;;;;5044848;28;20049;-65
2022/09/17 07:33:43;;;;;;;;;;;12.40;99.90;;;;;;5043800;28;19984;-64
2022/09/17 07:36:11;;;;;;;;;;;12.50;99.90;;;;;;5040174;28;19997;-65
2022/09/17 07:38:39;;;;;;;;;;;12.60;99.90;;;;;;5040559;28;20002;-66
2022/09/17 07:41:11;;;;;;;;;;;12.80;99.90;;;;;;5043525;28;19977;-66
2022/09/17 07:43:39;;;;;;;;;;;12.80;99.90;;;;;;5037285;28;19981;-66
2022/09/17 07:46:07;;;;;;;;;;;13.00;99.90;;;;;;5041724;28;19974;-66
2022/09/17 07:48:35;;;;;;;;;;;13.20;99.90;;;;;;5058901;28;20475;-66
2022/09/17 07:51:02;;;;;;;;;;;13.40;99.90;;;;;;5045175;28;19972;-66
2022/09/17 07:53:30;;;;;;;;;;;13.60;99.90;;;;;;5034031;28;19984;-66
2022/09/17 07:55:58;;;;;;;;;;;13.70;99.90;;;;;;5041196;28;20060;-66
2022/09/17 07:58:30;;;;;;;;;;;13.50;99.90;;;;;;5050477;28;20688;-66
2022/09/17 08:01:01;;;;;;;;;;;13.60;99.90;;;;;;5039092;28;19967;-66
2022/09/17 08:03:29;;;;;;;;;;;13.40;99.90;;;;;;5036719;28;20006;-65
2022/09/17 08:06:02;;;;;;;;;;;13.40;99.90;;;;;;5048544;28;20012;-65
2022/09/17 08:08:32;;;;;;;;;;;13.30;99.90;;;;;;5050890;28;19963;-65
2022/09/17 08:11:01;;;;;;;;;;;13.30;99.90;;;;;;5044282;28;20018;-65
2022/09/17 08:13:30;;;;;;;;;;;13.30;99.90;;;;;;5042247;28;19963;-66
2022/09/17 08:15:58;;;;;;;;;;;13.30;99.90;;;;;;5045139;28;19987;-66
2022/09/17 08:18:27;;;;;;;;;;;13.20;99.90;;;;;;5044850;28;19976;-65
2022/09/17 08:20:56;;;;;;;;;;;13.40;99.90;;;;;;5037800;28;20534;-66
2022/09/17 08:23:24;;;;;;;;;;;13.60;99.90;;;;;;5048952;28;19979;-66
2022/09/17 08:25:52;;;;;;;;;;;13.90;99.90;;;;;;5054165;28;19973;-66
2022/09/17 08:28:20;;;;;;;;;;;14.10;99.90;;;;;;5037999;28;19970;-65
2022/09/17 08:30:49;;;;;;;;;;;14.40;99.90;;;;;;5032828;28;20033;-66
2022/09/17 08:33:17;;;;;;;;;;;14.60;99.90;;;;;;5033627;28;20096;-66
2022/09/17 08:35:51;;;;;;;;;;;14.80;99.90;;;;;;5048250;28;19968;-66
2022/09/17 08:38:19;;;;;;;;;;;15.10;99.90;;;;;;5051414;28;20242;-65
2022/09/17 08:40:54;;;;;;;;;;;15.20;99.90;;;;;;5040869;28;20504;-64
2022/09/17 08:43:23;;;;;;;;;;;15.10;99.90;;;;;;5041432;28;20516;-63
2022/09/17 08:45:54;;;;;;;;;;;15.10;99.90;;;;;;5043390;28;20442;-63
2022/09/17 08:48:22;;;;;;;;;;;15.10;99.90;;;;;;5058528;28;20002;-63
2022/09/17 08:50:50;;;;;;;;;;;15.20;99.90;;;;;;5034733;28;20713;-63
2022/09/17 08:53:24;;;;;;;;;;;15.00;99.90;;;;;;5053207;28;20667;-63
2022/09/17 08:55:56;;;;;;;;;;;15.10;99.90;;;;;;5037734;28;20776;-64
2022/09/17 08:58:30;;;;;;;;;;;15.30;99.90;;;;;;5048726;28;20752;-64
2022/09/17 09:01:04;;;;;;;;;;;15.40;99.90;;;;;;5033259;28;19975;-64
2022/09/17 09:03:40;;;;;;;;;;;15.60;99.90;;;;;;5032855;28;21331;-64
2022/09/17 09:06:08;;;;;;;;;;;15.70;99.90;;;;;;5054183;28;20042;-63
2022/09/17 09:08:39;;;;;;;;;;;15.70;99.90;;;;;;5032494;28;19977;-63
2022/09/17 09:11:15;;;;;;;;;;;15.40;99.90;;;;;;5055120;28;19982;-63
2022/09/17 09:13:44;;;;;;;;;;;15.40;99.90;;;;;;5038015;28;20550;-64
2022/09/17 09:16:15;;;;;;;;;;;15.50;99.90;;;;;;5050502;28;20443;-63
2022/09/17 09:18:43;;;;;;;;;;;15.50;99.90;;;;;;5034539;28;20094;-63
2022/09/17 09:21:20;;;;;;;;;;;15.60;99.90;;;;;;5047923;28;20453;-63
2022/09/17 09:23:52;;;;;;;;;;;15.60;99.90;;;;;;5055120;28;19977;-63
2022/09/17 09:26:20;;;;;;;;;;;15.50;99.90;;;;;;5035717;28;20457;-63
2022/09/17 09:29:05;;;;;;;;;;;15.50;99.90;;;;;;5052267;28;20453;-63
2022/09/17 09:31:51;;;;;;;;;;;15.70;99.90;;;;;;5040015;28;19978;-63
2022/09/17 09:34:20;;;;;;;;;;;16.00;99.90;;;;;;5036858;28;20028;-63
2022/09/17 09:36:49;;;;;;;;;;;15.80;99.90;;;;;;5034209;28;20368;-63
2022/09/17 09:39:20;;;;;;;;;;;15.80;99.90;;;;;;5038928;28;19991;-63
2022/09/17 09:41:50;;;;;;;;;;;15.50;99.90;;;;;;5048762;28;19975;-63
2022/09/17 09:44:17;;;;;;;;;;;15.20;99.90;;;;;;5038911;28;20520;-63
2022/09/17 09:46:58;;;;;;;;;;;15.10;99.90;;;;;;5052927;28;20430;-63
2022/09/17 09:49:33;;;;;;;;;;;14.80;99.90;;;;;;5038221;28;19968;-63
2022/09/17 09:52:06;;;;;;;;;;;14.60;99.90;;;;;;5049606;28;19982;-63
2022/09/17 09:54:45;;;;;;;;;;;14.50;99.90;;;;;;5036200;28;19967;-64
2022/09/17 09:57:15;;;;;;;;;;;14.30;99.90;;;;;;5043666;28;20725;-63
2022/09/17 09:59:42;;;;;;;;;;;14.20;99.90;;;;;;5049745;28;19968;-63
2022/09/17 10:02:10;;;;;;;;;;;14.20;99.90;;;;;;5037261;28;19978;-63
2022/09/17 10:04:39;;;;;;;;;;;14.00;99.90;;;;;;5051479;28;19971;-63
2022/09/17 10:07:08;;;;;;;;;;;14.10;99.90;;;;;;5041167;28;20013;-63
2022/09/17 10:09:36;;;;;;;;;;;14.00;99.90;;;;;;5041828;28;19966;-63
2022/09/17 10:12:05;;;;;;;;;;;14.20;99.90;;;;;;5045644;28;19970;-64
2022/09/17 10:14:34;;;;;;;;;;;14.40;99.90;;;;;;5040155;28;19974;-63
2022/09/17 10:17:14;;;;;;;;;;;14.40;99.90;;;;;;5038507;28;19968;-63
2022/09/17 10:19:44;;;;;;;;;;;14.40;99.90;;;;;;5061392;22;20349;-60
2022/09/17 10:22:33;;;;;;;;;;;14.50;99.90;;;;;;5053463;28;19979;-62
2022/09/17 10:25:01;;;;;;;;;;;14.40;99.90;;;;;;5050374;28;19968;-62
2022/09/17 10:27:30;;;;;;;;;;;14.60;99.90;;;;;;5056094;28;20081;-63
2022/09/17 10:30:01;;;;;;;;;;;14.60;99.90;;;;;;5056223;28;20082;-62
2022/09/17 10:32:29;;;;;;;;;;;14.60;99.90;;;;;;5054466;28;20183;-62
2022/09/17 10:34:59;;;;;;;;;;;14.70;99.90;;;;;;5054453;28;20002;-63
2022/09/17 10:37:45;;;;;;;;;;;14.70;99.90;;;;;;5055064;28;19974;-63
2022/09/17 10:40:28;;;;;;;;;;;14.80;99.90;;;;;;5049916;28;20074;-63
2022/09/17 10:43:17;;;;;;;;;;;14.70;99.90;;;;;;5057939;28;20061;-62
2022/09/17 10:45:46;;;;;;;;;;;14.60;99.90;;;;;;5054280;28;19977;-63
2022/09/17 10:48:15;;;;;;;;;;;14.70;99.90;;;;;;5054176;28;20361;-63
2022/09/17 10:50:49;;;;;;;;;;;14.80;99.90;;;;;;5054876;28;20111;-63
2022/09/17 10:53:17;;;;;;;;;;;15.00;99.90;;;;;;5052868;28;20227;-63
2022/09/17 10:55:47;;;;;;;;;;;15.40;99.90;;;;;;5054735;28;20103;-62
2022/09/17 10:58:24;;;;;;;;;;;15.60;99.90;;;;;;5053618;28;20741;-63
2022/09/17 11:00:58;;;;;;;;;;;15.90;99.90;;;;;;5054334;28;25140;-63
2022/09/17 11:03:47;;;;;;;;;;;16.00;99.90;;;;;;5053445;28;20544;-63
2022/09/17 11:06:30;;;;;;;;;;;16.00;99.90;;;;;;5051841;28;19972;-64
2022/09/17 11:09:02;;;;;;;;;;;16.10;99.90;;;;;;5053971;28;20056;-63
2022/09/17 11:11:39;;;;;;;;;;;15.90;99.90;;;;;;5055432;28;20029;-63
2022/09/17 11:14:14;;;;;;;;;;;15.90;99.90;;;;;;5060420;28;20920;-63
2022/09/17 11:16:47;;;;;;;;;;;16.10;99.90;;;;;;5052845;28;20424;-63
2022/09/17 11:19:22;;;;;;;;;;;16.30;99.90;;;;;;5051822;28;19966;-63
2022/09/17 11:21:56;;;;;;;;;;;16.30;99.90;;;;;;5052205;28;21133;-63
2022/09/17 11:24:43;;;;;;;;;;;16.20;99.90;;;;;;5054013;28;20005;-63
2022/09/17 11:27:17;;;;;;;;;;;16.30;99.90;;;;;;5052681;28;20068;-63
2022/09/17 11:29:52;;;;;;;;;;;16.30;99.90;;;;;;5054240;28;20009;-62
2022/09/17 11:32:30;;;;;;;;;;;16.30;99.90;;;;;;5053652;28;20346;-63
2022/09/17 11:35:00;;;;;;;;;;;16.80;99.90;;;;;;5048670;28;20014;-62
2022/09/17 11:37:31;;;;;;;;;;;17.10;99.90;;;;;;5054496;28;19982;-63
2022/09/17 11:40:00;;;;;;;;;;;17.60;99.90;;;;;;5053567;28;20019;-63
2022/09/17 11:42:31;;;;;;;;;;;17.70;99.90;;;;;;5054652;28;19976;-63
2022/09/17 11:45:02;;;;;;;;;;;17.80;99.90;;;;;;5058703;28;19981;-62
2022/09/17 11:47:31;;;;;;;;;;;17.60;99.90;;;;;;5053764;28;20080;-63
2022/09/17 11:50:00;;;;;;;;;;;17.20;99.90;;;;;;5053214;28;20984;-63
2022/09/17 11:52:32;;;;;;;;;;;16.90;99.90;;;;;;5052807;28;20050;-63
2022/09/17 11:55:02;;;;;;;;;;;16.60;99.90;;;;;;5053173;28;19978;-63
2022/09/17 11:57:32;;;;;;;;;;;16.40;99.90;;;;;;5052600;28;20375;-63
2022/09/17 12:00:03;;;;;;;;;;;16.30;99.90;;;;;;5053317;28;20561;-63
2022/09/17 12:02:38;;;;;;;;;;;16.10;99.90;;;;;;5052875;28;19988;-63
2022/09/17 12:05:09;;;;;;;;;;;16.00;99.90;;;;;;5053904;28;20676;-62
2022/09/17 12:07:40;;;;;;;;;;;16.40;99.90;;;;;;5045517;28;19990;-63
2022/09/17 12:10:18;;;;;;;;;;;17.30;99.90;;;;;;5048083;28;19974;-63
2022/09/17 12:12:50;;;;;;;;;;;17.60;99.90;;;;;;5055182;28;19973;-63
2022/09/17 12:15:20;;;;;;;;;;;17.50;99.90;;;;;;5052735;28;20045;-63
2022/09/17 12:17:52;;;;;;;;;;;17.30;99.90;;;;;;5053487;28;19966;-63
2022/09/17 12:20:42;;;;;;;;;;;17.10;99.90;;;;;;5051450;28;19976;-63
2022/09/17 12:23:14;;;;;;;;;;;17.00;99.90;;;;;;5050203;28;20349;-63
2022/09/17 12:25:45;;;;;;;;;;;17.00;99.90;;;;;;5046771;28;20096;-63
2022/09/17 12:28:18;;;;;;;;;;;16.80;99.90;;;;;;5053113;28;20510;-63
2022/09/17 12:30:53;;;;;;;;;;;17.30;99.90;;;;;;5052276;28;20032;-63
2022/09/17 12:33:23;;;;;;;;;;;17.70;99.90;;;;;;5051815;28;20174;-63
2022/09/17 12:35:56;;;;;;;;;;;17.90;99.90;;;;;;5052323;28;20017;-64
2022/09/17 12:38:41;;;;;;;;;;;18.50;99.90;;;;;;5053013;28;21199;-63
2022/09/17 12:41:13;;;;;;;;;;;19.00;99.90;;;;;;5052728;28;20761;-63
2022/09/17 12:43:49;;;;;;;;;;;19.30;99.90;;;;;;5052137;28;20379;-63
2022/09/17 12:46:24;;;;;;;;;;;19.50;99.90;;;;;;5051638;28;20023;-63
2022/09/17 12:49:17;;;;;;;;;;;19.20;99.40;;;;;;5052156;28;20417;-63
2022/09/17 12:51:56;;;;;;;;;;;18.80;99.00;;;;;;5051428;28;19970;-63
2022/09/17 12:54:33;;;;;;;;;;;19.00;99.20;;;;;;5050913;28;20137;-63
2022/09/17 12:57:05;;;;;;;;;;;19.40;98.90;;;;;;5050868;28;20915;-63
2022/09/17 12:59:34;;;;;;;;;;;19.80;97.80;;;;;;5052485;28;19993;-63
2022/09/17 13:02:02;;;;;;;;;;;19.80;97.30;;;;;;5051767;28;21223;-63
2022/09/17 13:04:49;;;;;;;;;;;19.30;97.60;;;;;;5052236;28;20014;-63
2022/09/17 13:07:42;;;;;;;;;;;19.30;98.30;;;;;;5051621;28;19974;-63
2022/09/17 13:10:23;;;;;;;;;;;19.60;98.50;;;;;;5037804;28;20022;-63
2022/09/17 13:12:53;;;;;;;;;;;19.30;98.00;;;;;;5054188;28;20601;-63
2022/09/17 13:15:30;;;;;;;;;;;19.30;98.50;;;;;;5051446;28;20004;-63
2022/09/17 13:18:01;;;;;;;;;;;19.90;99.40;;;;;;5052348;28;20402;-63
2022/09/17 13:20:55;;;;;;;;;;;20.00;98.50;;;;;;5050876;28;19982;-63
2022/09/17 13:23:30;;;;;;;;;;;20.30;97.00;;;;;;5052112;28;19971;-64
2022/09/17 13:26:03;;;;;;;;;;;20.40;97.30;;;;;;5051551;28;20552;-63
2022/09/17 13:28:42;;;;;;;;;;;20.90;97.00;;;;;;5052156;28;20650;-63
2022/09/17 13:31:19;;;;;;;;;;;20.80;96.70;;;;;;5045422;28;20468;-63
2022/09/17 13:33:57;;;;;;;;;;;20.70;97.30;;;;;;5050830;28;20150;-63
2022/09/17 13:36:45;;;;;;;;;;;20.70;97.40;;;;;;5051957;28;20941;-63
2022/09/17 13:39:27;;;;;;;;;;;20.70;97.00;;;;;;5051011;28;20826;-63
2022/09/17 13:42:01;;;;;;;;;;;20.50;96.30;;;;;;5044889;28;20011;-63
2022/09/17 13:44:29;;;;;;;;;;;20.70;96.70;;;;;;5053993;28;20312;-64
2022/09/17 13:47:08;;;;;;;;;;;21.00;96.30;;;;;;5051469;28;21359;-63
2022/09/17 13:49:35;;;;;;;;;;;21.30;96.30;;;;;;5050198;28;21176;-63
2022/09/17 13:52:04;;;;;;;;;;;20.90;96.10;;;;;;5050436;28;20006;-63
2022/09/17 13:54:38;;;;;;;;;;;20.90;96.10;;;;;;5051065;28;20018;-63
2022/09/17 13:57:17;;;;;;;;;;;20.90;96.00;;;;;;5050378;28;20441;-62
2022/09/17 13:59:56;;;;;;;;;;;21.00;97.00;;;;;;5044524;28;20657;-63
2022/09/17 14:02:28;;;;;;;;;;;21.20;96.80;;;;;;5049824;28;20728;-64
2022/09/17 14:05:12;;;;;;;;;;;21.60;96.70;;;;;;5050847;28;19978;-63
2022/09/17 14:07:47;;;;;;;;;;;22.00;95.30;;;;;;5050287;28;19975;-64
2022/09/17 14:10:33;;;;;;;;;;;22.10;94.80;;;;;;5050362;28;20505;-63
2022/09/17 14:13:16;;;;;;;;;;;21.80;96.00;;;;;;5047169;28;20184;-63
2022/09/17 14:15:56;;;;;;;;;;;21.50;96.20;;;;;;5052665;28;25073;-63
2022/09/17 14:18:34;;;;;;;;;;;20.70;96.80;;;;;;5057350;28;20578;-63
2022/09/17 14:21:05;;;;;;;;;;;20.10;96.70;;;;;;5048831;28;20667;-63
2022/09/17 14:23:33;;;;;;;;;;;19.60;97.00;;;;;;5049502;28;19959;-63
2022/09/17 14:26:02;;;;;;;;;;;19.00;97.50;;;;;;5051489;28;20344;-63
2022/09/17 14:28:33;;;;;;;;;;;18.50;98.50;;;;;;5050646;28;20096;-63
2022/09/17 14:31:08;;;;;;;;;;;18.40;99.90;;;;;;5051181;28;20232;-63
2022/09/17 14:33:36;;;;;;;;;;;18.10;99.90;;;;;;5050628;28;20484;-63
2022/09/17 14:36:08;;;;;;;;;;;17.20;99.90;;;;;;5050847;28;20001;-63
2022/09/17 14:38:43;;;;;;;;;;;16.20;99.90;;;;;;5049262;28;19989;-63